Time;durP1;ratioP1;P1;durP2;ratioP2;P2;SDS_P1;SDS_P2;PMS_P1;PMS_P2;Temp;Humidity;BMP_temperature;BMP_pressure;BME280_temperature;BME280_humidity;BME280_pressure;Samples;Min_cycle;Max_cycle;Signal;HPM_P1;HPM_P2
2021/07/14 00:00:58;;;;;;;13.93;12.53;;;;;;;;;;5072010;28;20433;-71
2021/07/14 00:03:24;;;;;;;14.77;13.47;;;;;;;;;;5072124;28;20508;-73
2021/07/14 00:05:50;;;;;;;14.67;13.37;;;;;;;;;;5071984;28;21052;-73
2021/07/14 00:08:16;;;;;;;13.23;12.23;;;;;;;;;;5071784;28;20464;-72
2021/07/14 00:10:42;;;;;;;14.67;13.27;;;;;;;;;;5070306;28;20515;-73
2021/07/14 00:23:43;;;;;;;14.40;13.20;;;;;;;;;;5058902;28;20414;-72
2021/07/14 00:26:09;;;;;;;13.27;12.03;;;;;;;;;;5071684;28;20835;-69
2021/07/14 00:28:35;;;;;;;15.27;13.77;;;;;;;;;;5071426;28;20414;-74
2021/07/14 00:31:02;;;;;;;13.97;12.80;;;;;;;;;;5071433;28;20513;-73
2021/07/14 00:33:31;;;;;;;15.30;13.80;;;;;;;;;;5071568;28;20414;-70
2021/07/14 00:35:57;;;;;;;14.17;12.73;;;;;;;;;;5071590;28;20414;-73
2021/07/14 00:38:23;;;;;;;14.77;13.47;;;;;;;;;;5071327;28;20935;-74
2021/07/14 00:40:49;;;;;;;14.57;13.23;;;;;;;;;;5071467;28;20485;-69
2021/07/14 00:43:15;;;;;;;14.70;13.37;;;;;;;;;;5070345;28;20422;-75
2021/07/14 00:45:41;;;;;;;15.50;14.10;;;;;;;;;;5071399;28;20422;-70
2021/07/14 00:48:08;;;;;;;15.50;14.10;;;;;;;;;;5071137;28;20415;-73
2021/07/14 00:50:34;;;;;;;15.60;14.30;;;;;;;;;;5071347;28;20584;-72
2021/07/14 00:53:01;;;;;;;14.47;13.27;;;;;;;;;;5071287;28;20414;-74
2021/07/14 00:55:27;;;;;;;15.40;14.00;;;;;;;;;;5072134;28;20407;-72
2021/07/14 00:57:53;;;;;;;14.47;13.27;;;;;;;;;;5076813;28;20891;-75
2021/07/14 01:00:19;;;;;;;15.23;13.73;;;;;;;;;;5071209;28;20430;-73
2021/07/14 01:02:45;;;;;;;16.13;14.40;;;;;;;;;;5071168;28;20763;-71
2021/07/14 01:05:11;;;;;;;15.77;14.27;;;;;;;;;;5070968;28;20519;-73
2021/07/14 01:07:42;;;;;;;14.30;12.90;;;;;;;;;;5070391;28;20454;-72
2021/07/14 01:10:17;;;;;;;15.20;13.80;;;;;;;;;;5071767;28;20807;-70
2021/07/14 01:13:03;;;;;;;16.30;14.70;;;;;;;;;;5074440;28;20417;-71
2021/07/14 01:15:43;;;;;;;15.17;13.87;;;;;;;;;;5074465;28;20402;-72
2021/07/14 01:18:28;;;;;;;16.43;14.83;;;;;;;;;;5074188;28;20410;-71
2021/07/14 01:20:57;;;;;;;15.20;13.90;;;;;;;;;;5074118;28;20511;-70
2021/07/14 01:23:42;;;;;;;15.07;13.77;;;;;;;;;;5074323;28;20410;-71
2021/07/14 01:26:11;;;;;;;15.87;14.47;;;;;;;;;;5087640;28;20416;-72
2021/07/14 01:28:38;;;;;;;16.33;14.90;;;;;;;;;;5087346;28;20506;-75
2021/07/14 01:31:04;;;;;;;15.80;14.30;;;;;;;;;;5074040;28;20470;-70
2021/07/14 01:33:34;;;;;;;15.97;14.47;;;;;;;;;;5074367;28;20414;-70
2021/07/14 01:36:02;;;;;;;16.00;14.10;;;;;;;;;;5074402;28;20434;-72
2021/07/14 01:38:29;;;;;;;15.07;13.73;;;;;;;;;;5074183;28;20415;-73
2021/07/14 01:40:55;;;;;;;15.17;13.87;;;;;;;;;;5074330;28;20438;-72
2021/07/14 01:43:22;;;;;;;15.57;13.97;;;;;;;;;;5074482;28;20437;-69
2021/07/14 01:45:51;;;;;;;15.37;13.97;;;;;;;;;;5074083;28;20423;-74
2021/07/14 01:48:17;;;;;;;15.80;14.10;;;;;;;;;;5073640;28;20413;-72
2021/07/14 01:50:43;;;;;;;15.13;13.73;;;;;;;;;;5073986;28;20490;-71
2021/07/14 01:53:10;;;;;;;16.53;15.07;;;;;;;;;;5073524;28;20414;-73
2021/07/14 01:55:38;;;;;;;16.00;14.57;;;;;;;;;;5076741;28;20401;-71
2021/07/14 01:58:04;;;;;;;15.53;14.07;;;;;;;;;;5077485;28;20452;-74
2021/07/14 02:00:31;;;;;;;15.37;14.07;;;;;;;;;;5073795;28;20938;-74
2021/07/14 02:05:29;;;;;;;15.80;14.40;;;;;;;;;;5073315;28;20935;-74
2021/07/14 02:07:58;;;;;;;15.00;13.70;;;;;;;;;;5073185;28;20426;-73
2021/07/14 02:10:24;;;;;;;15.97;14.53;;;;;;;;;;5071976;28;20547;-75
2021/07/14 02:12:51;;;;;;;16.03;14.60;;;;;;;;;;5074001;28;20821;-71
2021/07/14 02:15:18;;;;;;;16.30;14.90;;;;;;;;;;5073617;28;20418;-73
2021/07/14 02:17:54;;;;;;;15.87;14.57;;;;;;;;;;5072801;28;20805;-74
2021/07/14 02:20:21;;;;;;;15.63;14.30;;;;;;;;;;5073255;28;20434;-75
2021/07/14 02:22:47;;;;;;;15.13;13.73;;;;;;;;;;5072157;28;20914;-72
2021/07/14 02:25:14;;;;;;;15.00;13.43;;;;;;;;;;5073286;28;20418;-75
2021/07/14 02:27:40;;;;;;;16.10;14.60;;;;;;;;;;5072793;28;20450;-74
2021/07/14 02:30:21;;;;;;;15.20;13.90;;;;;;;;;;5073143;28;20461;-73
2021/07/14 02:32:56;;;;;;;14.57;13.17;;;;;;;;;;5073470;28;21077;-71
2021/07/14 02:35:22;;;;;;;15.33;13.93;;;;;;;;;;5073308;28;20421;-72
2021/07/14 02:37:48;;;;;;;14.87;13.37;;;;;;;;;;5072879;28;20421;-70
2021/07/14 02:40:17;;;;;;;15.20;13.77;;;;;;;;;;5073227;28;20419;-74
2021/07/14 02:42:43;;;;;;;15.63;14.07;;;;;;;;;;5073332;28;20420;-74
2021/07/14 02:45:09;;;;;;;14.70;13.30;;;;;;;;;;5073265;28;20406;-72
2021/07/14 02:47:38;;;;;;;15.10;13.70;;;;;;;;;;5072649;28;20414;-72
2021/07/14 02:50:09;;;;;;;14.87;13.57;;;;;;;;;;5072987;28;20446;-69
2021/07/14 02:52:36;;;;;;;15.17;13.93;;;;;;;;;;5090743;28;20834;-74
2021/07/14 02:55:04;;;;;;;14.90;13.67;;;;;;;;;;5087969;28;20756;-74
2021/07/14 02:57:32;;;;;;;14.70;13.50;;;;;;;;;;5079246;28;20480;-73
2021/07/14 02:59:59;;;;;;;15.90;14.43;;;;;;;;;;5072772;28;20418;-73
2021/07/14 03:02:25;;;;;;;15.43;14.03;;;;;;;;;;5091426;28;20418;-74
2021/07/14 03:04:52;;;;;;;15.13;13.83;;;;;;;;;;5093340;28;20420;-74
2021/07/14 03:07:21;;;;;;;14.93;13.60;;;;;;;;;;5095620;28;20479;-73
2021/07/14 03:09:48;;;;;;;15.23;13.80;;;;;;;;;;5097024;28;20425;-72
2021/07/14 03:12:16;;;;;;;15.43;14.13;;;;;;;;;;5077281;28;20448;-71
2021/07/14 03:14:46;;;;;;;15.43;14.03;;;;;;;;;;5077020;28;20507;-74
2021/07/14 03:17:14;;;;;;;16.17;14.67;;;;;;;;;;5076283;28;20886;-73
2021/07/14 03:19:40;;;;;;;14.83;13.43;;;;;;;;;;5076765;28;20414;-75
2021/07/14 03:22:06;;;;;;;15.50;14.10;;;;;;;;;;5076232;28;20477;-70
2021/07/14 03:24:34;;;;;;;15.23;14.03;;;;;;;;;;5076730;28;20406;-72
2021/07/14 03:27:01;;;;;;;17.00;15.40;;;;;;;;;;5076226;28;20661;-72
2021/07/14 03:29:27;;;;;;;16.63;15.07;;;;;;;;;;5076615;28;20732;-71
2021/07/14 03:31:53;;;;;;;15.87;14.33;;;;;;;;;;5076370;28;20465;-71
2021/07/14 03:34:19;;;;;;;15.73;14.20;;;;;;;;;;5076222;28;20417;-73
2021/07/14 03:36:48;;;;;;;16.23;14.67;;;;;;;;;;5076097;28;20438;-74
2021/07/14 03:39:14;;;;;;;15.80;14.30;;;;;;;;;;5076276;28;20410;-70
2021/07/14 03:41:40;;;;;;;15.30;13.90;;;;;;;;;;5076373;28;20437;-71
2021/07/14 03:44:07;;;;;;;16.13;14.63;;;;;;;;;;5076342;28;20414;-71
2021/07/14 03:46:33;;;;;;;15.23;13.83;;;;;;;;;;5076095;28;20481;-73
2021/07/14 03:48:59;;;;;;;14.63;13.33;;;;;;;;;;5076195;28;20414;-71
2021/07/14 03:51:26;;;;;;;15.63;14.00;;;;;;;;;;5075999;28;20970;-73
2021/07/14 03:53:52;;;;;;;15.03;13.67;;;;;;;;;;5076145;28;20422;-73
2021/07/14 03:56:22;;;;;;;16.53;15.03;;;;;;;;;;5082868;28;20401;-74
2021/07/14 03:58:49;;;;;;;16.47;15.07;;;;;;;;;;5075738;28;20464;-69
2021/07/14 04:01:17;;;;;;;16.37;14.90;;;;;;;;;;5075904;28;20520;-74
2021/07/14 04:03:43;;;;;;;15.50;14.10;;;;;;;;;;5075777;28;20425;-72
2021/07/14 04:06:10;;;;;;;15.00;13.67;;;;;;;;;;5075505;28;20430;-74
2021/07/14 04:08:48;;;;;;;15.07;13.70;;;;;;;;;;5075408;28;20471;-73
2021/07/14 04:11:15;;;;;;;15.63;14.20;;;;;;;;;;5075752;28;20466;-70
2021/07/14 04:13:41;;;;;;;16.03;14.47;;;;;;;;;;5074294;28;20414;-74
2021/07/14 04:16:07;;;;;;;16.23;14.53;;;;;;;;;;5075674;28;20760;-70
2021/07/14 04:18:34;;;;;;;16.50;14.80;;;;;;;;;;5075044;28;20415;-72
2021/07/14 04:21:00;;;;;;;15.70;14.30;;;;;;;;;;5074270;28;20915;-72
2021/07/14 04:23:26;;;;;;;14.77;13.37;;;;;;;;;;5075487;28;20925;-71
2021/07/14 04:25:52;;;;;;;15.47;13.83;;;;;;;;;;5075644;28;20417;-71
2021/07/14 04:28:19;;;;;;;16.43;14.30;;;;;;;;;;5075009;28;20471;-73
2021/07/14 04:30:45;;;;;;;16.10;14.57;;;;;;;;;;5075189;28;20830;-70
2021/07/14 04:33:11;;;;;;;15.40;14.00;;;;;;;;;;5075133;28;20407;-72
2021/07/14 04:35:39;;;;;;;15.57;14.07;;;;;;;;;;5075491;28;20417;-76
2021/07/14 04:38:05;;;;;;;15.27;13.77;;;;;;;;;;5075240;28;20422;-73
2021/07/14 04:40:31;;;;;;;16.03;14.70;;;;;;;;;;5074082;28;20431;-75
2021/07/14 04:42:57;;;;;;;15.23;13.80;;;;;;;;;;5075209;28;20418;-75
2021/07/14 04:45:23;;;;;;;14.47;13.27;;;;;;;;;;5075345;28;20972;-74
2021/07/14 04:47:49;;;;;;;17.13;15.63;;;;;;;;;;5074983;28;20410;-74
2021/07/14 04:50:15;;;;;;;16.30;14.70;;;;;;;;;;5075044;28;20465;-70
2021/07/14 04:52:41;;;;;;;16.13;14.57;;;;;;;;;;5073509;28;20501;-74
2021/07/14 04:55:07;;;;;;;16.60;15.00;;;;;;;;;;5074748;28;20741;-73
2021/07/14 04:57:33;;;;;;;15.90;14.50;;;;;;;;;;5081778;28;20472;-71
2021/07/14 04:59:59;;;;;;;16.30;14.80;;;;;;;;;;5074997;28;20419;-72
2021/07/14 05:02:25;;;;;;;15.50;14.10;;;;;;;;;;5075050;28;20421;-74
2021/07/14 05:04:51;;;;;;;16.53;14.80;;;;;;;;;;5074599;28;20739;-75
2021/07/14 05:07:17;;;;;;;17.20;15.50;;;;;;;;;;5074754;28;20419;-71
2021/07/14 05:09:43;;;;;;;16.67;15.17;;;;;;;;;;5074929;28;20429;-71
2021/07/14 05:12:09;;;;;;;16.40;15.00;;;;;;;;;;5074576;28;20477;-72
2021/07/14 05:14:35;;;;;;;15.20;13.90;;;;;;;;;;5074539;28;20414;-73
2021/07/14 05:17:01;;;;;;;18.30;16.60;;;;;;;;;;5073977;28;20417;-71
2021/07/14 05:19:27;;;;;;;16.20;14.90;;;;;;;;;;5074423;28;20410;-71
2021/07/14 05:21:53;;;;;;;16.57;14.97;;;;;;;;;;5074640;28;20430;-72
2021/07/14 05:24:19;;;;;;;16.67;15.13;;;;;;;;;;5074290;28;20418;-74
2021/07/14 05:26:45;;;;;;;17.60;15.80;;;;;;;;;;5073961;28;20414;-72
2021/07/14 05:29:11;;;;;;;16.30;14.93;;;;;;;;;;5073383;28;20902;-73
2021/07/14 05:31:37;;;;;;;17.43;15.80;;;;;;;;;;5074131;28;20462;-72
2021/07/14 05:34:03;;;;;;;16.60;14.83;;;;;;;;;;5074206;28;20411;-71
2021/07/14 05:36:29;;;;;;;17.40;15.83;;;;;;;;;;5074246;28;20950;-74
2021/07/14 05:38:58;;;;;;;18.40;16.60;;;;;;;;;;5073509;28;20414;-71
2021/07/14 05:41:24;;;;;;;17.50;15.80;;;;;;;;;;5080243;28;20465;-74
2021/07/14 05:43:50;;;;;;;17.83;16.13;;;;;;;;;;5094364;28;20417;-72
2021/07/14 05:46:16;;;;;;;17.70;16.10;;;;;;;;;;5094001;28;20873;-73
2021/07/14 05:48:43;;;;;;;18.33;16.60;;;;;;;;;;5093659;28;20409;-75
2021/07/14 05:51:09;;;;;;;18.63;16.83;;;;;;;;;;5094162;28;20469;-73
2021/07/14 05:53:35;;;;;;;19.53;17.73;;;;;;;;;;5094244;28;20408;-72
2021/07/14 05:56:01;;;;;;;18.90;17.10;;;;;;;;;;5086696;28;20492;-70
2021/07/14 05:58:27;;;;;;;18.40;16.50;;;;;;;;;;5073192;28;20745;-73
2021/07/14 06:00:53;;;;;;;23.87;21.60;;;;;;;;;;5080095;28;20432;-73
2021/07/14 06:03:19;;;;;;;19.17;17.30;;;;;;;;;;5093736;28;20418;-71
2021/07/14 06:05:45;;;;;;;20.47;18.53;;;;;;;;;;5093483;28;20483;-74
2021/07/14 06:08:11;;;;;;;19.80;17.70;;;;;;;;;;5093628;28;20820;-72
2021/07/14 06:10:37;;;;;;;21.13;18.97;;;;;;;;;;5087367;28;20462;-72
2021/07/14 06:13:03;;;;;;;19.90;17.90;;;;;;;;;;5073481;28;20410;-72
2021/07/14 06:15:29;;;;;;;21.60;19.57;;;;;;;;;;5073091;28;20407;-73
2021/07/14 06:17:55;;;;;;;21.80;19.57;;;;;;;;;;5073050;28;20403;-71
2021/07/14 06:20:22;;;;;;;23.07;20.80;;;;;;;;;;5073146;28;20536;-73
2021/07/14 06:22:48;;;;;;;21.50;19.30;;;;;;;;;;5073363;28;20521;-74
2021/07/14 06:25:14;;;;;;;22.10;20.10;;;;;;;;;;5073262;28;20418;-72
2021/07/14 06:27:44;;;;;;;20.70;18.60;;;;;;;;;;5073086;28;20480;-76
2021/07/14 06:30:10;;;;;;;22.23;20.00;;;;;;;;;;5072786;28;20469;-75
2021/07/14 06:32:37;;;;;;;22.60;20.20;;;;;;;;;;5087424;28;20409;-74
2021/07/14 06:35:04;;;;;;;21.47;18.57;;;;;;;;;;5093485;28;20458;-71
2021/07/14 06:37:30;;;;;;;23.40;19.90;;;;;;;;;;5092648;28;20948;-73
2021/07/14 06:39:56;;;;;;;21.83;19.83;;;;;;;;;;5092301;28;20405;-73
2021/07/14 06:42:23;;;;;;;22.60;20.20;;;;;;;;;;5072502;28;20937;-78
2021/07/14 06:44:49;;;;;;;24.97;22.27;;;;;;;;;;5069495;28;20891;-72
2021/07/14 06:47:16;;;;;;;25.73;22.80;;;;;;;;;;5067535;28;20934;-71
2021/07/14 06:49:42;;;;;;;30.53;25.37;;;;;;;;;;5062085;28;20441;-71
2021/07/14 06:52:08;;;;;;;28.43;24.90;;;;;;;;;;5070208;28;20449;-71
2021/07/14 06:54:38;;;;;;;33.47;28.10;;;;;;;;;;5079053;28;20441;-71
2021/07/14 06:57:04;;;;;;;30.20;27.07;;;;;;;;;;5076064;28;20421;-73
2021/07/14 06:59:30;;;;;;;31.33;28.03;;;;;;;;;;5073229;28;20782;-75
2021/07/14 07:01:57;;;;;;;31.73;26.53;;;;;;;;;;5073918;28;20951;-73
2021/07/14 07:04:23;;;;;;;34.10;28.80;;;;;;;;;;5076869;28;20424;-74
2021/07/14 07:06:49;;;;;;;35.57;28.93;;;;;;;;;;5078532;28;20426;-73
2021/07/14 07:09:16;;;;;;;31.43;27.70;;;;;;;;;;5069165;28;20410;-76
2021/07/14 07:11:42;;;;;;;34.97;27.90;;;;;;;;;;5069855;28;20581;-74
2021/07/14 07:14:08;;;;;;;33.50;28.53;;;;;;;;;;5089251;28;20428;-74
2021/07/14 07:16:34;;;;;;;29.77;26.53;;;;;;;;;;5089029;28;20833;-75
2021/07/14 07:19:00;;;;;;;31.30;28.00;;;;;;;;;;5087978;28;20888;-73
2021/07/14 07:21:26;;;;;;;30.63;27.13;;;;;;;;;;5083605;28;20442;-76
2021/07/14 07:23:52;;;;;;;31.90;28.50;;;;;;;;;;5088970;28;20426;-72
2021/07/14 07:26:18;;;;;;;30.90;27.50;;;;;;;;;;5088874;28;20420;-74
2021/07/14 07:28:44;;;;;;;30.97;26.27;;;;;;;;;;5079211;28;20971;-72
2021/07/14 07:31:11;;;;;;;30.30;27.13;;;;;;;;;;5068582;28;20561;-75
2021/07/14 07:33:40;;;;;;;31.47;28.00;;;;;;;;;;5068748;28;20442;-73
2021/07/14 07:36:07;;;;;;;33.60;30.07;;;;;;;;;;5081889;28;20504;-75
2021/07/14 07:38:36;;;;;;;29.23;26.03;;;;;;;;;;5068558;28;20414;-75
2021/07/14 07:41:02;;;;;;;30.40;27.20;;;;;;;;;;5068783;28;20557;-76
2021/07/14 07:43:29;;;;;;;30.93;27.70;;;;;;;;;;5068549;28;20422;-73
2021/07/14 07:45:56;;;;;;;31.67;28.30;;;;;;;;;;5068408;28;20418;-73
2021/07/14 07:48:23;;;;;;;32.47;29.00;;;;;;;;;;5078404;28;20428;-70
2021/07/14 07:50:49;;;;;;;31.13;27.97;;;;;;;;;;5088861;28;20540;-76
2021/07/14 07:53:19;;;;;;;30.40;27.20;;;;;;;;;;5074671;28;20923;-72
2021/07/14 07:55:46;;;;;;;31.00;25.93;;;;;;;;;;5072985;28;20471;-76
2021/07/14 07:58:12;;;;;;;28.80;25.80;;;;;;;;;;5075225;28;20418;-73
2021/07/14 08:00:38;;;;;;;27.73;24.57;;;;;;;;;;5072248;28;20531;-74
2021/07/14 08:03:04;;;;;;;26.27;23.63;;;;;;;;;;5072387;28;20433;-75
2021/07/14 08:05:30;;;;;;;27.93;25.13;;;;;;;;;;5075979;28;20432;-72
2021/07/14 08:07:56;;;;;;;27.43;24.73;;;;;;;;;;5092135;28;20421;-73
2021/07/14 08:10:22;;;;;;;25.90;23.20;;;;;;;;;;5087616;28;20493;-73
2021/07/14 08:12:48;;;;;;;27.53;24.70;;;;;;;;;;5072212;28;20732;-75
2021/07/14 08:15:14;;;;;;;26.00;23.50;;;;;;;;;;5071927;28;20922;-71
2021/07/14 08:17:40;;;;;;;26.87;24.10;;;;;;;;;;5071388;28;20813;-72
2021/07/14 08:20:08;;;;;;;27.67;25.13;;;;;;;;;;5071537;28;20414;-74
2021/07/14 08:22:34;;;;;;;25.60;23.23;;;;;;;;;;5071663;28;21014;-71
2021/07/14 08:25:01;;;;;;;27.27;24.37;;;;;;;;;;5071728;28;20468;-73
2021/07/14 08:27:27;;;;;;;27.70;24.73;;;;;;;;;;5069704;28;20498;-72
2021/07/14 08:30:00;;;;;;;25.87;23.20;;;;;;;;;;5071378;28;20415;-71
2021/07/14 08:32:29;;;;;;;24.37;21.90;;;;;;;;;;5071604;28;20456;-72
2021/07/14 08:34:56;;;;;;;26.50;23.70;;;;;;;;;;5071323;28;20453;-71
2021/07/14 08:37:22;;;;;;;26.67;24.23;;;;;;;;;;5071066;28;20418;-74
2021/07/14 08:39:49;;;;;;;26.10;23.70;;;;;;;;;;5071553;28;20415;-75
2021/07/14 08:42:16;;;;;;;26.03;23.63;;;;;;;;;;5070912;28;20438;-76
2021/07/14 08:44:42;;;;;;;24.93;22.63;;;;;;;;;;5084061;28;21223;-74
2021/07/14 08:47:09;;;;;;;26.53;24.10;;;;;;;;;;5084042;28;20498;-72
2021/07/14 08:49:37;;;;;;;24.70;22.40;;;;;;;;;;5091220;28;21158;-72
2021/07/14 08:52:03;;;;;;;24.60;22.40;;;;;;;;;;5091416;28;20504;-71
2021/07/14 08:54:29;;;;;;;24.60;22.07;;;;;;;;;;5090636;28;20641;-71
2021/07/14 08:56:55;;;;;;;23.90;21.80;;;;;;;;;;5076667;28;20958;-74
2021/07/14 08:59:21;;;;;;;24.00;21.80;;;;;;;;;;5071184;28;20406;-74
2021/07/14 09:01:48;;;;;;;24.97;22.57;;;;;;;;;;5070806;28;20469;-71
2021/07/14 09:04:14;;;;;;;21.83;19.80;;;;;;;;;;5070448;28;20426;-72
2021/07/14 09:06:40;;;;;;;22.23;20.20;;;;;;;;;;5070708;28;20445;-72
2021/07/14 09:09:07;;;;;;;36.43;32.97;;;;;;;;;;5070988;28;20414;-75
2021/07/14 09:11:50;;;;;;;22.83;20.73;;;;;;;;;;5070834;28;20477;-74
2021/07/14 09:14:28;;;;;;;20.60;18.80;;;;;;;;;;5070897;28;20418;-71
2021/07/14 09:16:54;;;;;;;20.30;18.60;;;;;;;;;;5070586;28;20767;-76
2021/07/14 09:19:23;;;;;;;19.73;18.00;;;;;;;;;;5070922;28;20491;-73
2021/07/14 09:21:49;;;;;;;20.23;18.40;;;;;;;;;;5070571;28;20496;-75
2021/07/14 09:24:22;;;;;;;18.43;16.83;;;;;;;;;;5070960;28;20508;-73
2021/07/14 09:26:48;;;;;;;19.97;18.27;;;;;;;;;;5071219;28;20450;-71
2021/07/14 09:29:14;;;;;;;20.67;18.87;;;;;;;;;;5070436;28;20453;-73
2021/07/14 09:31:44;;;;;;;21.77;19.87;;;;;;;;;;5070188;28;20986;-70
2021/07/14 09:34:25;;;;;;;22.57;20.50;;;;;;;;;;5070540;28;20429;-75
2021/07/14 09:36:55;;;;;;;20.17;18.47;;;;;;;;;;5069813;28;20814;-72
2021/07/14 09:39:37;;;;;;;20.70;18.80;;;;;;;;;;5070035;28;20410;-72
2021/07/14 09:42:11;;;;;;;19.97;18.27;;;;;;;;;;5070132;28;20513;-71
2021/07/14 09:44:47;;;;;;;18.40;16.90;;;;;;;;;;5069085;28;20899;-74
2021/07/14 09:47:16;;;;;;;19.20;17.60;;;;;;;;;;5069922;28;20989;-72
2021/07/14 09:49:43;;;;;;;18.83;17.13;;;;;;;;;;5069963;28;20419;-73
2021/07/14 09:52:10;;;;;;;19.80;18.13;;;;;;;;;;5069591;28;20501;-70
2021/07/14 09:54:36;;;;;;;19.90;17.97;;;;;;;;;;5068546;28;20473;-74
2021/07/14 09:57:15;;;;;;;18.90;17.40;;;;;;;;;;5076556;28;20529;-72
2021/07/14 09:59:42;;;;;;;19.00;17.30;;;;;;;;;;5069903;28;20505;-73
2021/07/14 10:02:13;;;;;;;19.50;17.90;;;;;;;;;;5069631;28;21198;-72
2021/07/14 10:04:40;;;;;;;19.57;17.87;;;;;;;;;;5069935;28;20918;-72
2021/07/14 10:07:07;;;;;;;19.30;17.70;;;;;;;;;;5069397;28;20450;-74
2021/07/14 10:09:33;;;;;;;19.60;18.00;;;;;;;;;;5069665;28;20415;-73
2021/07/14 10:12:18;;;;;;;17.67;16.27;;;;;;;;;;5069731;28;20498;-74
2021/07/14 10:14:44;;;;;;;19.67;18.17;;;;;;;;;;5069683;28;20399;-71
2021/07/14 10:17:10;;;;;;;18.40;16.97;;;;;;;;;;5069458;28;21097;-73
2021/07/14 10:19:36;;;;;;;17.87;16.37;;;;;;;;;;5069657;28;21227;-72
2021/07/14 10:22:02;;;;;;;16.77;15.30;;;;;;;;;;5069369;28;20435;-72
2021/07/14 10:24:28;;;;;;;15.53;14.17;;;;;;;;;;5068241;28;21193;-72
2021/07/14 10:26:56;;;;;;;16.07;14.77;;;;;;;;;;5069139;28;20437;-73
2021/07/14 10:29:22;;;;;;;16.00;14.50;;;;;;;;;;5068376;28;20422;-72
2021/07/14 10:31:50;;;;;;;18.60;17.17;;;;;;;;;;5067782;28;20474;-71
2021/07/14 10:34:17;;;;;;;16.17;14.97;;;;;;;;;;5067826;28;20442;-71
2021/07/14 10:36:43;;;;;;;21.03;19.30;;;;;;;;;;5069126;28;20759;-73
2021/07/14 10:39:14;;;;;;;17.80;16.50;;;;;;;;;;5069310;28;20486;-72
2021/07/14 10:41:40;;;;;;;14.50;13.40;;;;;;;;;;5069269;28;20839;-70
2021/07/14 10:44:06;;;;;;;16.40;15.20;;;;;;;;;;5068845;28;20430;-71
2021/07/14 10:46:34;;;;;;;15.63;14.27;;;;;;;;;;5069259;28;20442;-73
2021/07/14 10:49:02;;;;;;;14.43;13.33;;;;;;;;;;5069237;28;20426;-71
2021/07/14 10:51:29;;;;;;;14.27;13.17;;;;;;;;;;5067760;28;20473;-71
2021/07/14 10:53:58;;;;;;;14.63;13.40;;;;;;;;;;5068799;28;20774;-70
2021/07/14 10:56:26;;;;;;;14.43;13.43;;;;;;;;;;5074558;28;20421;-72
2021/07/14 10:58:52;;;;;;;17.23;15.63;;;;;;;;;;5084495;28;20417;-71
2021/07/14 11:01:37;;;;;;;15.53;14.20;;;;;;;;;;5085988;28;20433;-70
2021/07/14 11:04:04;;;;;;;15.23;14.07;;;;;;;;;;5075938;28;20884;-72
2021/07/14 11:06:30;;;;;;;14.60;13.60;;;;;;;;;;5068801;28;20572;-72
2021/07/14 11:08:56;;;;;;;15.60;14.57;;;;;;;;;;5068441;28;20441;-70
2021/07/14 11:11:23;;;;;;;15.40;14.20;;;;;;;;;;5068492;28;20470;-73
2021/07/14 11:14:04;;;;;;;15.17;14.00;;;;;;;;;;5088177;28;20515;-70
2021/07/14 11:16:31;;;;;;;15.57;14.50;;;;;;;;;;5089117;28;20496;-72
2021/07/14 11:19:07;;;;;;;15.10;14.00;;;;;;;;;;5079698;28;20421;-74
2021/07/14 11:21:42;;;;;;;13.83;12.87;;;;;;;;;;5063676;28;20438;-73
2021/07/14 11:24:08;;;;;;;15.37;14.37;;;;;;;;;;5068962;28;20417;-71
2021/07/14 11:26:34;;;;;;;14.37;13.37;;;;;;;;;;5070131;28;20428;-74
2021/07/14 11:29:13;;;;;;;15.23;13.63;;;;;;;;;;5073611;28;20537;-75
2021/07/14 11:31:42;;;;;;;14.87;13.83;;;;;;;;;;5072248;28;20880;-71
2021/07/14 11:34:44;;;;;;;16.10;14.90;;;;;;;;;;5083380;28;20827;-74
2021/07/14 11:37:22;;;;;;;14.80;13.70;;;;;;;;;;5067654;28;20414;-73
2021/07/14 11:39:48;;;;;;;14.67;13.67;;;;;;;;;;5089985;28;20424;-73
2021/07/14 11:42:20;;;;;;;15.17;13.60;;;;;;;;;;5091802;28;20433;-74
2021/07/14 11:44:53;;;;;;;15.17;13.93;;;;;;;;;;5059967;28;20429;-72
2021/07/14 11:47:32;;;;;;;15.67;14.50;;;;;;;;;;5072113;28;20425;-73
2021/07/14 11:49:58;;;;;;;18.37;16.87;;;;;;;;;;5072253;28;20430;-75
2021/07/14 11:52:46;;;;;;;16.40;15.10;;;;;;;;;;5072098;28;20445;-74
2021/07/14 11:55:24;;;;;;;14.27;13.17;;;;;;;;;;5072181;28;20418;-74
2021/07/14 11:57:54;;;;;;;15.27;13.97;;;;;;;;;;5077982;28;20559;-75
2021/07/14 12:00:40;;;;;;;14.60;13.50;;;;;;;;;;5071840;28;20450;-74
2021/07/14 12:03:06;;;;;;;13.80;12.60;;;;;;;;;;5072241;28;20410;-74
2021/07/14 12:05:34;;;;;;;13.77;12.87;;;;;;;;;;5074796;28;20448;-72
2021/07/14 12:08:10;;;;;;;16.10;14.53;;;;;;;;;;5090438;28;20410;-71
2021/07/14 12:10:36;;;;;;;14.67;13.57;;;;;;;;;;5085570;28;20472;-71
2021/07/14 12:13:06;;;;;;;15.53;14.40;;;;;;;;;;5072024;28;20430;-74
2021/07/14 12:15:32;;;;;;;14.40;13.40;;;;;;;;;;5071577;28;20501;-73
2021/07/14 12:18:08;;;;;;;12.90;12.00;;;;;;;;;;5071141;28;20442;-74
2021/07/14 12:20:34;;;;;;;13.57;12.37;;;;;;;;;;5071530;28;20509;-74
2021/07/14 12:23:00;;;;;;;14.27;13.17;;;;;;;;;;5072302;28;21014;-71
2021/07/14 12:25:26;;;;;;;14.47;13.43;;;;;;;;;;5086769;28;20417;-72
2021/07/14 12:27:52;;;;;;;14.60;13.50;;;;;;;;;;5084824;28;20770;-74
2021/07/14 12:30:23;;;;;;;13.73;12.50;;;;;;;;;;5071056;28;21030;-73
2021/07/14 12:32:53;;;;;;;15.30;14.00;;;;;;;;;;5071638;28;20419;-74
2021/07/14 12:35:25;;;;;;;13.70;12.60;;;;;;;;;;5071497;28;20411;-73
2021/07/14 12:37:55;;;;;;;14.27;13.17;;;;;;;;;;5070828;28;20417;-70
2021/07/14 12:40:21;;;;;;;14.73;13.30;;;;;;;;;;5071241;28;20495;-72
2021/07/14 12:42:47;;;;;;;14.67;13.47;;;;;;;;;;5072147;28;20417;-71
2021/07/14 12:45:24;;;;;;;13.80;12.47;;;;;;;;;;5089794;28;20774;-72
2021/07/14 12:47:50;;;;;;;14.80;13.50;;;;;;;;;;5071045;28;20505;-73
2021/07/14 12:50:21;;;;;;;14.50;13.30;;;;;;;;;;5071247;28;20415;-74
2021/07/14 12:52:50;;;;;;;14.57;13.37;;;;;;;;;;5071345;28;20418;-70
2021/07/14 12:55:19;;;;;;;16.60;15.00;;;;;;;;;;5071009;28;20422;-72
2021/07/14 12:57:45;;;;;;;15.53;14.33;;;;;;;;;;5077303;28;20418;-71
2021/07/14 13:00:11;;;;;;;17.70;16.10;;;;;;;;;;5070980;28;20420;-71
2021/07/14 13:02:40;;;;;;;17.23;15.53;;;;;;;;;;5071129;28;20523;-70
2021/07/14 13:05:07;;;;;;;18.63;17.03;;;;;;;;;;5071173;28;21173;-72
2021/07/14 13:07:34;;;;;;;18.67;17.17;;;;;;;;;;5070660;28;20471;-73
2021/07/14 13:10:01;;;;;;;18.40;16.90;;;;;;;;;;5070488;28;20448;-75
2021/07/14 13:12:30;;;;;;;17.27;15.70;;;;;;;;;;5078471;28;20444;-73
2021/07/14 13:14:56;;;;;;;18.67;17.17;;;;;;;;;;5091201;28;20413;-72
2021/07/14 13:17:27;;;;;;;19.00;17.43;;;;;;;;;;5086201;28;20422;-75
2021/07/14 13:20:10;;;;;;;19.33;17.63;;;;;;;;;;5072418;28;20414;-72
2021/07/14 13:22:37;;;;;;;19.30;17.30;;;;;;;;;;5070829;28;20427;-71
2021/07/14 13:25:03;;;;;;;18.20;16.40;;;;;;;;;;5070640;28;20438;-72
2021/07/14 13:27:36;;;;;;;17.23;15.60;;;;;;;;;;5070473;28;20421;-72
2021/07/14 13:30:21;;;;;;;17.40;15.73;;;;;;;;;;5070028;28;20497;-75
2021/07/14 13:32:56;;;;;;;17.00;15.70;;;;;;;;;;5070433;28;20438;-72
2021/07/14 13:35:24;;;;;;;17.20;15.50;;;;;;;;;;5079749;28;20997;-74
2021/07/14 13:37:50;;;;;;;16.70;15.37;;;;;;;;;;5087123;28;20492;-71
2021/07/14 13:40:29;;;;;;;17.40;15.80;;;;;;;;;;5090465;28;20744;-72
2021/07/14 13:42:57;;;;;;;16.93;15.47;;;;;;;;;;5086348;28;20410;-74
2021/07/14 13:45:27;;;;;;;17.87;16.37;;;;;;;;;;5090467;28;20440;-74
2021/07/14 13:48:03;;;;;;;16.60;15.30;;;;;;;;;;5090025;28;20805;-71
2021/07/14 13:50:30;;;;;;;17.60;16.00;;;;;;;;;;5084638;28;20545;-74
2021/07/14 13:53:00;;;;;;;17.23;15.80;;;;;;;;;;5090604;28;20424;-74
2021/07/14 13:55:26;;;;;;;18.73;16.73;;;;;;;;;;5082565;28;20415;-71
2021/07/14 13:57:52;;;;;;;17.40;15.90;;;;;;;;;;5075234;28;20421;-74
2021/07/14 14:00:19;;;;;;;17.83;16.23;;;;;;;;;;5069701;28;20414;-73
2021/07/14 14:02:56;;;;;;;17.40;15.90;;;;;;;;;;5069959;28;20411;-72
2021/07/14 14:05:22;;;;;;;16.80;15.33;;;;;;;;;;5069878;28;20791;-73
2021/07/14 14:07:48;;;;;;;17.60;16.17;;;;;;;;;;5069335;28;20831;-70
2021/07/14 14:10:15;;;;;;;17.50;16.10;;;;;;;;;;5069419;28;20422;-73
2021/07/14 14:12:46;;;;;;;16.40;14.90;;;;;;;;;;5069753;28;20753;-75
2021/07/14 14:15:14;;;;;;;17.10;15.70;;;;;;;;;;5069789;28;20497;-74
2021/07/14 14:17:40;;;;;;;16.53;15.13;;;;;;;;;;5069406;28;20411;-71
2021/07/14 14:20:08;;;;;;;17.00;15.70;;;;;;;;;;5069383;28;20445;-74
2021/07/14 14:22:34;;;;;;;16.37;15.17;;;;;;;;;;5069775;28;20437;-71
2021/07/14 14:25:05;;;;;;;16.43;15.03;;;;;;;;;;5069563;28;20449;-72
2021/07/14 14:30:21;;;;;;;16.43;15.03;;;;;;;;;;5046710;28;20425;-76
2021/07/14 14:32:48;;;;;;;16.07;14.77;;;;;;;;;;5068210;28;20937;-74
2021/07/14 14:35:14;;;;;;;14.53;13.43;;;;;;;;;;5069638;28;20411;-74
2021/07/14 14:37:40;;;;;;;16.90;15.70;;;;;;;;;;5068936;28;20449;-75